Latest Weather Observations for Jervis Bay Airfield

IDN60801

Issued at 8:22 am EDT Monday 25 March 2019 (issued every 10 minutes, with the page automatically refreshed every 10 minutes)

About weather observations | Map of weather stations | Latest weather observations for NSW | Other Formats
Station Details ID: 068264 Name: JERVIS BAY AIRFIELD AWS Lat: -35.14 Lon: 150.70 Height: 57.18 m
Data from the previous 72 hours. | See also: Recent months at Jervis Bay Airfield
Date/Time
EDT
Temp
°C
App
Temp
°C
Dew
Point
°C
Rel
Hum
%
Delta-T
°C
Wind Press
QNH
hPa
Press
MSL
hPa
Rain since
9am
mm
Dir  Spd
km/h
Gust
km/h
Spd
kts
Gust
kts
25/08:00am 23.3 19.2 13.8 55 5.6 NW 28 35 15 19 1005.2 1005.0 0.0
25/07:34am 24.4 18.7 13.0 49 6.6 NW 35 54 19 29 1005.2 1005.0 0.0
25/07:30am 24.2 18.4 12.8 49 6.6 NW 35 50 19 27 1005.4 1005.2 0.0
25/07:00am 24.6 18.7 12.5 46 7.0 NW 35 46 19 25 1004.8 1004.6 0.0
25/06:30am 24.6 19.0 13.2 49 6.6 NW 35 54 19 29 1004.8 1004.6 0.0
25/06:13am 25.0 19.1 13.5 48 6.7 NW 37 59 20 32 1004.7 1004.5 0.0
25/06:00am 24.6 19.7 14.4 53 6.1 NW 33 46 18 25 1004.4 1004.2 0.0
25/05:30am 24.8 18.9 14.6 53 6.1 NNW 39 59 21 32 1003.7 1003.5 0.0
25/05:00am 24.4 19.7 14.8 55 5.8 NNW 33 57 18 31 1004.6 1004.4 0.0
25/04:53am 24.5 20.7 14.6 54 5.9 NNW 28 57 15 31 1004.6 1004.4 0.0
25/04:30am 24.3 23.0 14.7 55 5.7 NW 15 26 8 14 1005.2 1005.0 0.0
25/04:00am 23.8 23.3 14.8 57 5.4 NNW 11 19 6 10 1005.7 1005.5 0.0
25/03:30am 24.1 21.2 15.1 57 5.4 NNW 24 39 13 21 1005.8 1005.6 0.0
25/03:00am 23.6 21.6 15.6 61 4.8 NNW 20 30 11 16 1006.3 1006.1 0.0
25/02:30am 23.7 21.4 15.7 61 4.8 NNW 22 33 12 18 1006.4 1006.2 0.0
25/02:00am 23.7 21.5 16.0 62 4.7 N 22 33 12 18 1006.5 1006.3 0.0
25/01:30am 23.9 22.0 16.7 64 4.4 N 22 33 12 18 1006.7 1006.5 0.0
25/01:00am 23.7 22.8 17.7 69 3.8 N 19 28 10 15 1007.3 1007.1 0.0
25/12:30am 23.2 23.3 19.2 78 2.6 N 17 24 9 13 1008.2 1008.0 0.0
25/12:00am 23.4 23.2 17.6 70 3.6 N 15 19 8 10 1008.9 1008.7 0.0
 
Date/Time
EDT
Temp
°C
App
Temp
°C
Dew
Point
°C
Rel
Hum
%
Delta-T
°C
Wind Press
QNH
hPa
Press
MSL
hPa
Rain since
9am
mm
Dir  Spd
km/h
Gust
km/h
Spd
kts
Gust
kts
24/11:30pm 23.4 23.5 18.3 73 3.2 N 15 20 8 11 1009.3 1009.1 0.0
24/11:00pm 22.1 24.5 21.6 97 0.3 N 11 15 6 8 1009.2 1009.0 0.0
24/10:30pm 22.2 24.3 21.7 97 0.3 NE 13 20 7 11 1007.7 1007.5 0.0
24/10:00pm 22.6 24.9 22.1 97 0.3 NE 13 17 7 9 1008.7 1008.5 0.0
24/09:30pm 22.5 24.9 22.2 98 0.2 NE 13 15 7 8 1008.9 1008.7 0.0
24/09:00pm 22.7 25.9 22.4 98 0.2 ENE 9 13 5 7 1009.2 1009.0 0.0
24/08:30pm 22.8 25.3 22.5 98 0.2 NNE 13 19 7 10 1009.2 1009.0 0.0
24/08:00pm 22.8 24.9 22.5 98 0.2 NNE 15 17 8 9 1009.3 1009.1 0.0
24/07:30pm 22.7 24.8 22.4 98 0.2 NNE 15 19 8 10 1009.2 1009.0 0.0
24/07:00pm 22.8 25.3 22.5 98 0.2 NNE 13 17 7 9 1009.3 1009.1 0.0
24/06:30pm 22.9 25.5 22.6 98 0.2 NNE 13 17 7 9 1009.4 1009.2 0.0
24/06:00pm 23.0 26.2 22.3 96 0.5 NE 9 13 5 7 1009.4 1009.2 0.0
24/05:30pm 23.0 25.6 22.0 94 0.7 NNE 11 15 6 8 1009.2 1009.0 0.0
24/05:00pm 23.0 25.0 21.6 92 0.9 NE 13 15 7 8 1008.9 1008.7 0.0
24/04:30pm 23.2 25.2 22.2 94 0.7 NE 15 19 8 10 1009.0 1008.8 0.0
24/04:00pm 23.2 25.2 21.5 90 1.1 NE 13 19 7 10 1009.2 1009.0 0.0
24/03:30pm 23.5 24.8 20.8 85 1.8 NE 15 17 8 9 1009.4 1009.2 0.0
24/03:00pm 24.3 25.0 21.2 83 2.0 NE 19 22 10 12 1009.5 1009.3 0.0
24/02:30pm 24.8 26.7 21.3 81 2.3 ENE 13 19 7 10 1010.1 1009.9 0.0
24/02:00pm 24.4 26.2 21.1 82 2.2 NE 13 17 7 9 1010.7 1010.5 0.0
24/01:30pm 25.8 28.6 20.4 72 3.5 E 6 15 3 8 1011.2 1011.0 0.0
24/01:00pm 24.8 27.6 20.9 79 2.6 SE 7 11 4 6 1011.6 1011.4 0.0
24/12:30pm 24.1 25.6 20.6 81 2.3 S 13 17 7 9 1012.0 1011.8 0.0
24/12:00pm 24.5 25.5 21.0 81 2.3 S 17 20 9 11 1012.0 1011.8 0.0
24/11:30am 23.8 24.5 21.5 87 1.5 SSW 20 24 11 13 1012.1 1011.9 0.0
24/11:00am 23.0 22.4 21.3 90 1.1 SSW 26 33 14 18 1012.7 1012.5 0.0
24/10:52am 23.2 23.0 21.3 89 1.3 SSW 24 33 13 18 1012.8 1012.6 0.0
24/10:30am 23.4 22.4 21.3 88 1.4 SW 28 41 15 22 1013.0 1012.8 0.0
24/10:14am 23.5 22.6 21.4 88 1.4 SW 28 39 15 21 1013.0 1012.8 0.0
24/10:00am 23.2 22.1 21.8 92 0.9 SW 30 39 16 21 1013.0 1012.8 0.0
24/09:30am 23.7 23.7 20.2 81 2.3 SSW 20 30 11 16 1012.4 1012.2 0.0
24/09:00am 23.0 24.2 19.0 78 2.5 SSW 11 19 6 10 1011.4 1011.2 0.0
24/08:30am 22.2 25.4 20.5 90 1.1 ENE 4 13 2 7 1010.9 1010.7 0.0
24/08:00am 21.6 23.1 19.0 85 1.6 NE 9 11 5 6 1010.9 1010.7 0.0
24/07:30am 20.7 23.7 18.5 87 1.4 CALM 0 0 0 0 1010.4 1010.2 0.0
24/07:00am 20.5 23.1 19.3 93 0.8 N 4 9 2 5 1009.7 1009.5 0.0
24/06:30am 20.8 23.9 18.7 88 1.3 CALM 0 0 0 0 1009.5 1009.3 0.0
24/06:00am 20.9 23.5 18.3 85 1.6 NE 2 7 1 4 1009.2 1009.0 0.0
24/05:30am 21.8 21.9 18.4 81 2.1 WNW 15 20 8 11 1008.9 1008.7 0.0
24/05:00am 21.3 23.0 18.5 84 1.8 NW 7 13 4 7 1008.8 1008.6 0.0
24/04:30am 20.9 22.5 18.3 85 1.6 NW 7 13 4 7 1008.7 1008.5 0.0
24/04:00am 21.8 22.5 18.8 83 1.9 WNW 13 19 7 10 1009.1 1008.9 0.0
24/03:30am 21.1 22.9 18.3 84 1.7 NNE 6 7 3 4 1009.7 1009.5 0.0
24/03:00am 21.6 22.2 18.6 83 1.9 N 13 17 7 9 1009.6 1009.4 0.0
24/02:30am 20.9 21.9 18.7 87 1.4 N 11 13 6 7 1009.7 1009.5 0.0
24/02:00am 21.8 22.3 19.2 85 1.7 NNW 15 19 8 10 1009.9 1009.7 0.0
24/01:30am 21.2 22.1 19.3 89 1.2 N 13 15 7 8 1010.1 1009.9 0.0
24/01:00am 21.6 22.9 20.2 92 0.9 NNW 13 19 7 10 1010.7 1010.5 0.0
24/12:30am 20.9 23.2 20.6 98 0.2 ENE 9 13 5 7 1010.8 1010.6 0.0
24/12:00am 20.6 23.1 20.3 98 0.2 NE 7 9 4 5 1010.7 1010.5 0.0
 
Date/Time
EDT
Temp
°C
App
Temp
°C
Dew
Point
°C
Rel
Hum
%
Delta-T
°C
Wind Press
QNH
hPa
Press
MSL
hPa
Rain since
9am
mm
Dir  Spd
km/h
Gust
km/h
Spd
kts
Gust
kts
23/11:30pm 21.0 23.0 20.7 98 0.2 NE 11 15 6 8 1010.4 1010.2 0.0
23/11:00pm 21.2 23.2 20.7 97 0.3 NNE 11 15 6 8 1010.4 1010.2 0.0
23/10:30pm 22.0 23.7 21.0 94 0.7 NNE 13 19 7 10 1010.4 1010.2 0.0
23/10:00pm 22.4 22.5 21.2 93 0.8 NNE 22 28 12 15 1010.4 1010.2 0.0
23/09:30pm 22.4 22.5 21.2 93 0.8 NE 22 30 12 16 1010.4 1010.2 0.0
23/09:00pm 22.4 23.2 21.4 94 0.7 NE 19 24 10 13 1010.5 1010.3 0.0
23/08:30pm 22.3 24.6 21.3 94 0.7 NNE 11 19 6 10 1010.7 1010.5 0.0
23/08:00pm 22.3 24.5 21.1 93 0.8 NE 11 15 6 8 1010.4 1010.2 0.0
23/07:30pm 22.5 23.6 21.3 93 0.8 NE 17 22 9 12 1010.5 1010.3 0.0
23/07:00pm 22.7 23.8 21.3 92 0.9 NNE 17 22 9 12 1010.8 1010.6 0.0
23/06:30pm 22.4 23.6 21.4 94 0.7 NE 17 22 9 12 1010.6 1010.4 0.0
23/06:00pm 22.6 23.8 21.4 93 0.8 NNE 17 24 9 13 1010.7 1010.5 0.0
23/05:30pm 22.5 23.5 21.1 92 0.9 NNE 17 20 9 11 1010.6 1010.4 0.0
23/05:00pm 22.7 23.4 20.4 87 1.5 NE 17 22 9 12 1010.3 1010.1 0.0
23/04:30pm 22.7 23.6 20.8 89 1.2 NE 17 20 9 11 1010.4 1010.2 0.0
23/04:00pm 23.1 24.7 20.8 87 1.5 NE 13 17 7 9 1010.5 1010.3 0.0
23/03:30pm 23.5 24.6 21.2 87 1.5 NE 17 22 9 12 1010.5 1010.3 0.0
23/03:00pm 23.0 23.4 20.9 88 1.4 NNE 20 26 11 14 1010.6 1010.4 0.0
23/02:30pm 23.2 24.1 20.9 87 1.5 NNE 17 24 9 13 1010.8 1010.6 0.0
23/02:00pm 23.6 23.5 20.7 84 1.9 NE 22 32 12 17 1011.0 1010.8 0.0
23/01:30pm 23.2 23.5 20.7 86 1.6 NNE 20 26 11 14 1011.6 1011.4 0.0
23/01:00pm 24.1 23.5 20.4 80 2.4 NNE 24 30 13 16 1011.7 1011.5 0.0
23/12:30pm 24.0 24.6 20.3 80 2.4 NE 17 24 9 13 1012.0 1011.8 0.0
23/12:00pm 23.8 24.3 20.1 80 2.4 NE 17 24 9 13 1012.5 1012.3 0.0
23/11:30am 23.3 24.0 19.7 80 2.3 N 15 19 8 10 1013.1 1012.9 0.0
23/11:00am 23.4 24.6 19.8 80 2.3 NNE 13 17 7 9 1013.5 1013.3 0.0
23/10:30am 22.5 23.4 18.5 78 2.5 N 11 13 6 7 1013.8 1013.6 0.0
23/10:00am 21.9 22.9 18.7 82 2.0 NE 11 17 6 9 1014.0 1013.8 0.0
23/09:30am 20.9 22.7 19.6 92 0.8 NE 9 11 5 6 1014.2 1014.0 0.0
23/09:00am 20.6 23.0 19.6 94 0.6 N 6 9 3 5 1014.2 1014.0 4.6
23/08:30am 19.4 21.4 19.1 98 0.2 NW 7 9 4 5 1014.2 1014.0 4.6
23/08:00am 18.6 20.2 18.3 98 0.2 WNW 7 9 4 5 1014.1 1013.9 4.6
23/07:30am 18.1 19.5 17.8 98 0.2 W 7 9 4 5 1014.1 1013.9 4.6
23/07:00am 18.0 19.0 17.7 98 0.2 W 9 11 5 6 1014.0 1013.8 4.6
23/06:30am 18.1 19.1 17.8 98 0.2 W 9 9 5 5 1013.9 1013.7 4.6
23/06:00am 18.2 19.3 17.9 98 0.2 W 9 11 5 6 1014.0 1013.8 4.6
23/05:30am 18.6 20.4 18.3 98 0.2 WSW 6 7 3 4 1013.9 1013.7 4.6
23/05:00am 18.6 21.5 18.3 98 0.2 CALM 0 0 0 0 1014.2 1014.0 4.6
23/04:30am 18.3 20.7 18.0 98 0.2 SE 2 7 1 4 1014.2 1014.0 4.6
23/04:00am 18.4 20.1 18.1 98 0.2 W 6 9 3 5 1014.4 1014.2 4.6
23/03:30am 18.0 19.4 17.7 98 0.2 SW 7 13 4 7 1014.6 1014.4 4.6
23/03:00am 17.8 19.1 17.5 98 0.2 SW 7 9 4 5 1014.6 1014.4 4.4
23/02:30am 18.3 19.8 18.0 98 0.2 SSW 7 9 4 5 1014.9 1014.7 4.4
23/02:00am 18.3 19.8 18.0 98 0.2 WSW 7 11 4 6 1015.0 1014.8 4.4
23/01:30am 18.0 19.4 17.7 98 0.2 WSW 7 9 4 5 1015.0 1014.8 4.4
23/01:00am 17.8 20.4 17.5 98 0.2 CALM 0 0 0 0 1015.3 1015.1 4.4
23/12:30am 18.1 20.8 17.8 98 0.2 CALM 0 0 0 0 1015.5 1015.3 4.4
23/12:00am 18.3 19.8 18.0 98 0.2 S 7 9 4 5 1015.8 1015.6 4.4
 
Date/Time
EDT
Temp
°C
App
Temp
°C
Dew
Point
°C
Rel
Hum
%
Delta-T
°C
Wind Press
QNH
hPa
Press
MSL
hPa
Rain since
9am
mm
Dir  Spd
km/h
Gust
km/h
Spd
kts
Gust
kts
22/11:30pm 18.3 19.4 18.0 98 0.2 W 9 11 5 6 1016.0 1015.8 4.4
22/11:00pm 18.3 19.4 18.0 98 0.2 W 9 11 5 6 1016.0 1015.8 4.4
22/10:30pm 18.7 20.5 18.4 98 0.2 WSW 6 7 3 4 1016.0 1015.8 4.4
22/10:00pm 18.4 19.5 18.1 98 0.2 WSW 9 9 5 5 1016.3 1016.1 4.4
22/09:30pm 18.2 19.8 17.9 98 0.2 W 6 7 3 4 1016.2 1016.0 4.4
22/09:04pm 18.3 19.8 18.0 98 0.2 W 7 11 4 6 1016.0 1015.8 4.4
22/09:00pm 18.3 19.4 18.0 98 0.2 WSW 9 13 5 7 1015.9 1015.7 4.4
22/08:30pm 18.3 18.3 18.0 98 0.2 NW 15 19 8 10 1015.7 1015.5 4.4
22/08:23pm 18.3 18.3 18.0 98 0.2 NW 15 19 8 10 1015.6 1015.4 4.4
22/08:00pm 18.8 19.7 18.5 98 0.2 S 11 19 6 10 1014.9 1014.7 4.4
22/07:31pm 18.6 21.2 18.3 98 0.2 WNW 2 7 1 4 1014.5 1014.3 3.0
22/07:30pm 18.6 21.2 18.3 98 0.2 WNW 2 7 1 4 1014.5 1014.3 2.8
22/07:11pm 19.0 20.0 18.7 98 0.2 WSW 11 15 6 8 1014.6 1014.4 1.6
22/07:00pm 19.5 22.0 19.0 97 0.3 WNW 4 11 2 6 1014.8 1014.6 0.6
22/06:39pm 19.8 20.7 18.3 91 0.9 NW 11 13 6 7 1015.2 1015.0 0.0
22/06:30pm 20.1 20.1 18.2 89 1.2 NW 15 22 8 12 1015.4 1015.2 0.0
22/06:26pm 20.2 19.4 18.0 87 1.4 NW 19 28 10 15 1015.4 1015.2 0.0
22/06:00pm 21.9 24.1 20.4 91 1.0 S 9 13 5 7 1015.3 1015.1 0.0
22/05:30pm 22.0 24.7 20.3 90 1.1 E 6 13 3 7 1015.6 1015.4 0.0
22/05:00pm 22.3 23.1 19.8 86 1.6 E 15 19 8 10 1015.3 1015.1 0.0
22/04:30pm 23.3 24.2 19.2 78 2.6 E 13 19 7 10 1015.1 1014.9 0.0
22/04:00pm 23.5 24.0 19.2 77 2.7 ESE 15 20 8 11 1015.2 1015.0 0.0
22/03:30pm 24.2 24.7 20.1 78 2.7 SSE 17 22 9 12 1015.1 1014.9 0.0
22/03:00pm 24.5 25.8 20.8 80 2.4 SSE 15 20 8 11 1015.5 1015.3 0.0
22/02:30pm 24.1 25.3 20.0 78 2.7 SSE 13 22 7 12 1015.8 1015.6 0.0
22/02:00pm 23.8 24.2 19.9 79 2.5 SW 17 20 9 11 1016.5 1016.3 0.0
22/01:30pm 23.2 24.1 19.2 78 2.6 S 13 17 7 9 1016.6 1016.4 0.0
22/01:00pm 22.8 24.7 19.8 83 1.9 SSW 9 13 5 7 1016.8 1016.6 0.0
22/12:40pm 23.0 24.5 19.8 82 2.1 SW 11 15 6 8 1017.0 1016.8 0.0
22/12:30pm 22.8 24.4 20.0 84 1.8 SW 11 17 6 9 1017.2 1017.1 0.0
22/12:21pm 22.8 24.1 20.1 85 1.7 SSW 13 17 7 9 1017.4 1017.3 0.0
22/12:00pm 23.1 24.3 20.6 86 1.6 SSW 15 19 8 10 1017.5 1017.4 0.0
22/11:51am 23.2 24.0 20.7 86 1.6 SSW 17 20 9 11 1017.6 1017.5 0.0
22/11:30am 22.6 23.5 20.9 90 1.1 SW 17 20 9 11 1017.9 1017.8 0.0
22/11:00am 22.4 23.4 20.3 88 1.4 SSW 15 20 8 11 1017.8 1017.7 0.0
22/10:56am 22.4 23.3 20.1 87 1.5 SSW 15 20 8 11 1017.7 1017.6 0.0
22/10:54am 22.6 23.7 20.5 88 1.4 SSW 15 20 8 11 1017.7 1017.6 0.0
22/10:30am 22.4 24.5 20.1 87 1.5 SW 9 15 5 8 1017.7 1017.6 0.0
22/10:11am 21.9 23.9 20.7 93 0.8 WSW 11 15 6 8 1017.7 1017.6 0.0
22/10:00am 21.6 23.7 20.1 91 1.0 SW 9 15 5 8 1017.6 1017.5 0.0
22/09:30am 21.4 23.0 20.0 92 0.9 SSW 11 13 6 7 1017.5 1017.4 0.0
22/09:00am 20.8 22.8 20.0 95 0.5 WSW 9 13 5 7 1017.5 1017.4 1.6
22/08:30am 20.6 22.1 19.8 95 0.5 W 11 15 6 8 1017.5 1017.4 1.6

Other formats

Comma delimited format used in spreadsheet applications
http://www.bom.gov.au/fwo/IDN60801/IDN60801.94751.axf

JavaScript Object Notation format (JSON) in row-major order
http://www.bom.gov.au/fwo/IDN60801/IDN60801.94751.json

Data quality

Most of these data are generated automatically and are frequently updated. Quality checks on data are not normally performed. It is possible for incorrect values to appear. Refer to information at About Latest Weather Observations and please check the disclaimer before using these data.